sensor_id;sensor_type;location;lat;lon;timestamp;P1;durP1;ratioP1;P2;durP2;ratioP2
65936;SDS011;52707;52.086;5.418;2022-09-09T00:09:43;1.33;;;0.98;;
65936;SDS011;52707;52.086;5.418;2022-09-09T00:12:12;1.85;;;1.13;;
65936;SDS011;52707;52.086;5.418;2022-09-09T00:17:12;2.25;;;0.90;;
65936;SDS011;52707;52.086;5.418;2022-09-09T00:19:53;4.57;;;1.35;;
65936;SDS011;52707;52.086;5.418;2022-09-09T00:22:22;3.17;;;1.20;;
65936;SDS011;52707;52.086;5.418;2022-09-09T00:24:51;1.63;;;1.10;;
65936;SDS011;52707;52.086;5.418;2022-09-09T00:27:26;1.88;;;1.38;;
65936;SDS011;52707;52.086;5.418;2022-09-09T00:29:57;2.70;;;1.42;;
65936;SDS011;52707;52.086;5.418;2022-09-09T00:32:27;4.72;;;1.83;;
65936;SDS011;52707;52.086;5.418;2022-09-09T00:35:02;3.13;;;1.52;;
65936;SDS011;52707;52.086;5.418;2022-09-09T00:37:29;4.38;;;2.20;;
65936;SDS011;52707;52.086;5.418;2022-09-09T00:39:59;3.55;;;1.70;;
65936;SDS011;52707;52.086;5.418;2022-09-09T00:44:53;2.80;;;1.70;;
65936;SDS011;52707;52.086;5.418;2022-09-09T00:47:32;4.07;;;1.93;;
65936;SDS011;52707;52.086;5.418;2022-09-09T00:55:03;2.38;;;1.60;;
65936;SDS011;52707;52.086;5.418;2022-09-09T00:57:31;3.08;;;1.90;;
65936;SDS011;52707;52.086;5.418;2022-09-09T01:02:28;2.08;;;1.40;;
65936;SDS011;52707;52.086;5.418;2022-09-09T01:05:02;4.45;;;1.60;;
65936;SDS011;52707;52.086;5.418;2022-09-09T01:07:31;2.33;;;1.67;;
65936;SDS011;52707;52.086;5.418;2022-09-09T01:09:59;2.38;;;1.70;;
65936;SDS011;52707;52.086;5.418;2022-09-09T01:15:09;6.95;;;1.80;;
65936;SDS011;52707;52.086;5.418;2022-09-09T01:17:44;7.22;;;2.60;;
65936;SDS011;52707;52.086;5.418;2022-09-09T01:27:57;5.00;;;2.30;;
65936;SDS011;52707;52.086;5.418;2022-09-09T01:30:25;7.10;;;2.13;;
65936;SDS011;52707;52.086;5.418;2022-09-09T01:32:54;5.93;;;2.20;;
65936;SDS011;52707;52.086;5.418;2022-09-09T01:37:47;3.88;;;2.20;;
65936;SDS011;52707;52.086;5.418;2022-09-09T01:40:13;4.55;;;2.30;;
65936;SDS011;52707;52.086;5.418;2022-09-09T01:42:40;5.85;;;3.03;;
65936;SDS011;52707;52.086;5.418;2022-09-09T01:45:06;8.80;;;2.67;;
65936;SDS011;52707;52.086;5.418;2022-09-09T01:47:33;3.75;;;2.67;;
65936;SDS011;52707;52.086;5.418;2022-09-09T01:49:59;5.75;;;2.30;;
65936;SDS011;52707;52.086;5.418;2022-09-09T01:52:26;8.45;;;2.47;;
65936;SDS011;52707;52.086;5.418;2022-09-09T01:54:53;3.40;;;2.95;;
65936;SDS011;52707;52.086;5.418;2022-09-09T02:00:02;6.53;;;2.60;;
65936;SDS011;52707;52.086;5.418;2022-09-09T02:05:10;2.92;;;2.22;;
65936;SDS011;52707;52.086;5.418;2022-09-09T02:07:42;5.32;;;2.30;;
65936;SDS011;52707;52.086;5.418;2022-09-09T02:12:35;4.13;;;2.50;;
65936;SDS011;52707;52.086;5.418;2022-09-09T02:15:03;8.85;;;2.83;;
65936;SDS011;52707;52.086;5.418;2022-09-09T02:17:32;5.72;;;2.55;;
65936;SDS011;52707;52.086;5.418;2022-09-09T02:20:02;7.18;;;2.40;;
65936;SDS011;52707;52.086;5.418;2022-09-09T02:22:28;6.50;;;2.95;;
65936;SDS011;52707;52.086;5.418;2022-09-09T02:24:57;8.65;;;2.85;;
65936;SDS011;52707;52.086;5.418;2022-09-09T02:27:25;5.57;;;2.95;;
65936;SDS011;52707;52.086;5.418;2022-09-09T02:29:51;4.55;;;2.90;;
65936;SDS011;52707;52.086;5.418;2022-09-09T02:32:20;6.25;;;2.67;;
65936;SDS011;52707;52.086;5.418;2022-09-09T02:34:52;4.38;;;2.88;;
65936;SDS011;52707;52.086;5.418;2022-09-09T02:37:21;5.53;;;2.90;;
65936;SDS011;52707;52.086;5.418;2022-09-09T02:39:51;4.10;;;3.08;;
65936;SDS011;52707;52.086;5.418;2022-09-09T02:42:17;4.32;;;2.65;;
65936;SDS011;52707;52.086;5.418;2022-09-09T02:44:43;4.05;;;2.70;;
65936;SDS011;52707;52.086;5.418;2022-09-09T02:47:16;6.93;;;2.75;;
65936;SDS011;52707;52.086;5.418;2022-09-09T02:49:56;3.22;;;2.92;;
65936;SDS011;52707;52.086;5.418;2022-09-09T02:52:30;9.32;;;3.40;;
65936;SDS011;52707;52.086;5.418;2022-09-09T02:55:00;6.28;;;3.20;;
65936;SDS011;52707;52.086;5.418;2022-09-09T02:57:30;4.53;;;2.95;;
65936;SDS011;52707;52.086;5.418;2022-09-09T02:59:58;5.90;;;3.30;;
65936;SDS011;52707;52.086;5.418;2022-09-09T03:02:24;14.82;;;3.05;;
65936;SDS011;52707;52.086;5.418;2022-09-09T03:04:51;5.20;;;3.03;;
65936;SDS011;52707;52.086;5.418;2022-09-09T03:07:18;10.13;;;3.22;;
65936;SDS011;52707;52.086;5.418;2022-09-09T03:09:44;3.13;;;2.70;;
65936;SDS011;52707;52.086;5.418;2022-09-09T03:12:11;5.97;;;2.67;;
65936;SDS011;52707;52.086;5.418;2022-09-09T03:14:38;6.25;;;3.22;;
65936;SDS011;52707;52.086;5.418;2022-09-09T03:17:05;8.68;;;3.28;;
65936;SDS011;52707;52.086;5.418;2022-09-09T03:19:31;5.75;;;3.35;;
65936;SDS011;52707;52.086;5.418;2022-09-09T03:21:58;5.97;;;3.50;;
65936;SDS011;52707;52.086;5.418;2022-09-09T03:24:24;7.10;;;3.45;;
65936;SDS011;52707;52.086;5.418;2022-09-09T03:26:51;5.40;;;3.55;;
65936;SDS011;52707;52.086;5.418;2022-09-09T03:29:17;8.65;;;3.15;;
65936;SDS011;52707;52.086;5.418;2022-09-09T03:31:44;6.57;;;3.30;;
65936;SDS011;52707;52.086;5.418;2022-09-09T03:34:10;5.55;;;3.45;;
65936;SDS011;52707;52.086;5.418;2022-09-09T03:36:37;5.30;;;3.55;;
65936;SDS011;52707;52.086;5.418;2022-09-09T03:39:03;5.25;;;3.13;;
65936;SDS011;52707;52.086;5.418;2022-09-09T03:41:29;4.97;;;2.83;;
65936;SDS011;52707;52.086;5.418;2022-09-09T03:43:56;6.82;;;3.47;;
65936;SDS011;52707;52.086;5.418;2022-09-09T03:46:23;12.90;;;3.40;;
65936;SDS011;52707;52.086;5.418;2022-09-09T03:48:49;3.95;;;3.10;;
65936;SDS011;52707;52.086;5.418;2022-09-09T03:51:16;7.22;;;3.80;;
65936;SDS011;52707;52.086;5.418;2022-09-09T03:53:42;5.78;;;3.10;;
65936;SDS011;52707;52.086;5.418;2022-09-09T03:56:09;7.28;;;3.38;;
65936;SDS011;52707;52.086;5.418;2022-09-09T03:58:36;6.35;;;3.20;;
65936;SDS011;52707;52.086;5.418;2022-09-09T04:01:03;11.00;;;4.05;;
65936;SDS011;52707;52.086;5.418;2022-09-09T04:03:30;7.90;;;3.63;;
65936;SDS011;52707;52.086;5.418;2022-09-09T04:05:57;3.20;;;2.88;;
65936;SDS011;52707;52.086;5.418;2022-09-09T04:08:24;7.57;;;3.42;;
65936;SDS011;52707;52.086;5.418;2022-09-09T04:10:51;5.75;;;3.28;;
65936;SDS011;52707;52.086;5.418;2022-09-09T04:13:18;7.60;;;3.42;;
65936;SDS011;52707;52.086;5.418;2022-09-09T04:15:44;7.43;;;3.45;;
65936;SDS011;52707;52.086;5.418;2022-09-09T04:18:11;9.95;;;3.42;;
65936;SDS011;52707;52.086;5.418;2022-09-09T04:20:42;5.70;;;3.47;;
65936;SDS011;52707;52.086;5.418;2022-09-09T04:23:09;8.23;;;3.60;;
65936;SDS011;52707;52.086;5.418;2022-09-09T04:25:35;6.20;;;3.50;;
65936;SDS011;52707;52.086;5.418;2022-09-09T04:28:01;8.05;;;3.47;;
65936;SDS011;52707;52.086;5.418;2022-09-09T04:30:28;6.75;;;3.40;;
65936;SDS011;52707;52.086;5.418;2022-09-09T04:32:55;3.78;;;2.75;;
65936;SDS011;52707;52.086;5.418;2022-09-09T04:35:22;8.77;;;3.15;;
65936;SDS011;52707;52.086;5.418;2022-09-09T04:37:49;9.25;;;3.30;;
65936;SDS011;52707;52.086;5.418;2022-09-09T04:40:15;4.70;;;3.00;;
65936;SDS011;52707;52.086;5.418;2022-09-09T04:42:42;6.43;;;3.15;;
65936;SDS011;52707;52.086;5.418;2022-09-09T04:45:10;10.93;;;3.30;;
65936;SDS011;52707;52.086;5.418;2022-09-09T04:47:37;8.80;;;3.42;;
65936;SDS011;52707;52.086;5.418;2022-09-09T04:50:04;9.35;;;3.40;;
65936;SDS011;52707;52.086;5.418;2022-09-09T04:52:31;6.90;;;2.97;;
65936;SDS011;52707;52.086;5.418;2022-09-09T04:54:57;9.85;;;3.40;;
65936;SDS011;52707;52.086;5.418;2022-09-09T04:57:24;7.45;;;3.22;;
65936;SDS011;52707;52.086;5.418;2022-09-09T04:59:50;8.15;;;3.13;;
65936;SDS011;52707;52.086;5.418;2022-09-09T05:02:16;5.15;;;2.90;;
65936;SDS011;52707;52.086;5.418;2022-09-09T05:04:43;6.72;;;3.80;;
65936;SDS011;52707;52.086;5.418;2022-09-09T05:07:09;10.13;;;3.58;;
65936;SDS011;52707;52.086;5.418;2022-09-09T05:09:36;11.20;;;3.20;;
65936;SDS011;52707;52.086;5.418;2022-09-09T05:12:02;7.18;;;2.97;;
65936;SDS011;52707;52.086;5.418;2022-09-09T05:14:28;7.20;;;3.17;;
65936;SDS011;52707;52.086;5.418;2022-09-09T05:16:56;11.27;;;3.28;;
65936;SDS011;52707;52.086;5.418;2022-09-09T05:19:22;9.02;;;3.28;;
65936;SDS011;52707;52.086;5.418;2022-09-09T05:21:48;10.10;;;3.35;;
65936;SDS011;52707;52.086;5.418;2022-09-09T05:24:14;7.85;;;3.25;;
65936;SDS011;52707;52.086;5.418;2022-09-09T05:26:41;7.38;;;2.83;;
65936;SDS011;52707;52.086;5.418;2022-09-09T05:29:07;6.65;;;2.90;;
65936;SDS011;52707;52.086;5.418;2022-09-09T05:31:34;7.60;;;3.00;;
65936;SDS011;52707;52.086;5.418;2022-09-09T05:34:00;8.82;;;3.53;;
65936;SDS011;52707;52.086;5.418;2022-09-09T05:36:27;10.27;;;3.10;;
65936;SDS011;52707;52.086;5.418;2022-09-09T05:38:53;11.27;;;3.45;;
65936;SDS011;52707;52.086;5.418;2022-09-09T05:41:22;9.23;;;2.88;;
65936;SDS011;52707;52.086;5.418;2022-09-09T05:43:49;5.95;;;3.03;;
65936;SDS011;52707;52.086;5.418;2022-09-09T05:46:19;8.27;;;3.40;;
65936;SDS011;52707;52.086;5.418;2022-09-09T05:48:46;12.68;;;3.53;;
65936;SDS011;52707;52.086;5.418;2022-09-09T05:51:14;11.88;;;3.15;;
65936;SDS011;52707;52.086;5.418;2022-09-09T05:53:43;8.68;;;3.20;;
65936;SDS011;52707;52.086;5.418;2022-09-09T05:56:11;7.45;;;2.95;;
65936;SDS011;52707;52.086;5.418;2022-09-09T05:58:38;5.82;;;2.88;;
65936;SDS011;52707;52.086;5.418;2022-09-09T06:01:10;4.88;;;2.50;;
65936;SDS011;52707;52.086;5.418;2022-09-09T06:03:38;11.95;;;3.20;;
65936;SDS011;52707;52.086;5.418;2022-09-09T06:06:06;13.48;;;3.40;;
65936;SDS011;52707;52.086;5.418;2022-09-09T06:08:33;11.43;;;2.70;;
65936;SDS011;52707;52.086;5.418;2022-09-09T06:11:13;8.13;;;3.03;;
65936;SDS011;52707;52.086;5.418;2022-09-09T06:13:39;9.65;;;3.28;;
65936;SDS011;52707;52.086;5.418;2022-09-09T06:16:13;13.13;;;3.42;;
65936;SDS011;52707;52.086;5.418;2022-09-09T06:18:40;11.00;;;3.08;;
65936;SDS011;52707;52.086;5.418;2022-09-09T06:21:08;9.38;;;2.97;;
65936;SDS011;52707;52.086;5.418;2022-09-09T06:23:35;9.45;;;2.60;;
65936;SDS011;52707;52.086;5.418;2022-09-09T06:28:34;9.48;;;3.03;;
65936;SDS011;52707;52.086;5.418;2022-09-09T06:31:01;11.20;;;2.88;;
65936;SDS011;52707;52.086;5.418;2022-09-09T06:33:30;23.33;;;3.45;;
65936;SDS011;52707;52.086;5.418;2022-09-09T06:35:57;14.05;;;3.38;;
65936;SDS011;52707;52.086;5.418;2022-09-09T06:38:24;7.68;;;2.83;;
65936;SDS011;52707;52.086;5.418;2022-09-09T06:40:51;10.10;;;2.53;;
65936;SDS011;52707;52.086;5.418;2022-09-09T06:43:17;10.30;;;2.78;;
65936;SDS011;52707;52.086;5.418;2022-09-09T06:45:43;8.32;;;2.75;;
65936;SDS011;52707;52.086;5.418;2022-09-09T06:48:18;18.92;;;3.05;;
65936;SDS011;52707;52.086;5.418;2022-09-09T06:50:44;12.60;;;2.75;;
65936;SDS011;52707;52.086;5.418;2022-09-09T06:53:10;16.13;;;3.58;;
65936;SDS011;52707;52.086;5.418;2022-09-09T06:55:36;11.18;;;2.47;;
65936;SDS011;52707;52.086;5.418;2022-09-09T06:58:07;16.05;;;3.63;;
65936;SDS011;52707;52.086;5.418;2022-09-09T07:00:33;11.60;;;2.63;;
65936;SDS011;52707;52.086;5.418;2022-09-09T07:03:00;18.70;;;2.95;;
65936;SDS011;52707;52.086;5.418;2022-09-09T07:05:26;19.65;;;3.55;;
65936;SDS011;52707;52.086;5.418;2022-09-09T07:07:52;12.95;;;2.33;;
65936;SDS011;52707;52.086;5.418;2022-09-09T07:10:18;23.42;;;2.97;;
65936;SDS011;52707;52.086;5.418;2022-09-09T07:12:45;8.77;;;2.25;;
65936;SDS011;52707;52.086;5.418;2022-09-09T07:15:15;15.10;;;2.53;;
65936;SDS011;52707;52.086;5.418;2022-09-09T07:17:44;13.90;;;2.53;;
65936;SDS011;52707;52.086;5.418;2022-09-09T07:20:11;9.05;;;2.15;;
65936;SDS011;52707;52.086;5.418;2022-09-09T07:22:38;11.43;;;2.45;;
65936;SDS011;52707;52.086;5.418;2022-09-09T07:25:04;15.07;;;2.55;;
65936;SDS011;52707;52.086;5.418;2022-09-09T07:27:31;16.65;;;2.88;;
65936;SDS011;52707;52.086;5.418;2022-09-09T07:29:57;15.30;;;2.70;;
65936;SDS011;52707;52.086;5.418;2022-09-09T07:32:23;16.25;;;2.78;;
65936;SDS011;52707;52.086;5.418;2022-09-09T07:34:51;11.27;;;2.78;;
65936;SDS011;52707;52.086;5.418;2022-09-09T07:37:17;13.20;;;2.55;;
65936;SDS011;52707;52.086;5.418;2022-09-09T07:39:44;9.73;;;2.38;;
65936;SDS011;52707;52.086;5.418;2022-09-09T07:42:10;9.45;;;2.35;;
65936;SDS011;52707;52.086;5.418;2022-09-09T07:44:37;11.60;;;2.38;;
65936;SDS011;52707;52.086;5.418;2022-09-09T07:47:05;14.27;;;2.50;;
65936;SDS011;52707;52.086;5.418;2022-09-09T07:49:31;7.90;;;2.30;;
65936;SDS011;52707;52.086;5.418;2022-09-09T07:51:58;14.43;;;2.53;;
65936;SDS011;52707;52.086;5.418;2022-09-09T07:54:25;16.88;;;2.45;;
65936;SDS011;52707;52.086;5.418;2022-09-09T07:56:52;9.48;;;2.83;;
65936;SDS011;52707;52.086;5.418;2022-09-09T07:59:18;10.88;;;2.33;;
65936;SDS011;52707;52.086;5.418;2022-09-09T08:01:46;18.65;;;2.55;;
65936;SDS011;52707;52.086;5.418;2022-09-09T08:04:14;14.63;;;2.63;;
65936;SDS011;52707;52.086;5.418;2022-09-09T08:06:42;12.90;;;2.38;;
65936;SDS011;52707;52.086;5.418;2022-09-09T08:09:09;13.70;;;2.75;;
65936;SDS011;52707;52.086;5.418;2022-09-09T08:11:35;13.45;;;2.60;;
65936;SDS011;52707;52.086;5.418;2022-09-09T08:14:04;9.73;;;2.58;;
65936;SDS011;52707;52.086;5.418;2022-09-09T08:16:32;8.75;;;1.90;;
65936;SDS011;52707;52.086;5.418;2022-09-09T08:18:58;11.95;;;2.47;;
65936;SDS011;52707;52.086;5.418;2022-09-09T08:21:29;12.57;;;1.95;;
65936;SDS011;52707;52.086;5.418;2022-09-09T08:23:56;8.45;;;2.28;;
65936;SDS011;52707;52.086;5.418;2022-09-09T08:26:24;12.65;;;2.25;;
65936;SDS011;52707;52.086;5.418;2022-09-09T08:28:51;11.32;;;2.70;;
65936;SDS011;52707;52.086;5.418;2022-09-09T08:31:19;7.90;;;2.03;;
65936;SDS011;52707;52.086;5.418;2022-09-09T08:33:47;12.95;;;2.65;;
65936;SDS011;52707;52.086;5.418;2022-09-09T08:36:22;13.38;;;2.35;;
65936;SDS011;52707;52.086;5.418;2022-09-09T08:38:50;17.33;;;3.05;;
65936;SDS011;52707;52.086;5.418;2022-09-09T08:43:46;12.38;;;2.45;;
65936;SDS011;52707;52.086;5.418;2022-09-09T08:46:19;17.73;;;3.08;;
65936;SDS011;52707;52.086;5.418;2022-09-09T08:51:48;8.38;;;1.88;;
65936;SDS011;52707;52.086;5.418;2022-09-09T08:54:15;11.50;;;2.40;;
65936;SDS011;52707;52.086;5.418;2022-09-09T08:57:03;15.23;;;2.33;;
65936;SDS011;52707;52.086;5.418;2022-09-09T09:02:04;12.10;;;2.53;;
65936;SDS011;52707;52.086;5.418;2022-09-09T09:07:26;13.45;;;2.70;;
65936;SDS011;52707;52.086;5.418;2022-09-09T09:10:02;16.08;;;2.60;;
65936;SDS011;52707;52.086;5.418;2022-09-09T09:12:49;7.45;;;2.20;;
65936;SDS011;52707;52.086;5.418;2022-09-09T09:15:21;10.27;;;2.15;;
65936;SDS011;52707;52.086;5.418;2022-09-09T09:17:49;12.63;;;2.60;;
65936;SDS011;52707;52.086;5.418;2022-09-09T09:20:16;18.88;;;2.72;;
65936;SDS011;52707;52.086;5.418;2022-09-09T09:22:50;8.05;;;2.00;;
65936;SDS011;52707;52.086;5.418;2022-09-09T09:25:18;10.80;;;2.20;;
65936;SDS011;52707;52.086;5.418;2022-09-09T09:30:18;8.57;;;2.45;;
65936;SDS011;52707;52.086;5.418;2022-09-09T09:35:40;8.60;;;2.15;;
65936;SDS011;52707;52.086;5.418;2022-09-09T09:38:13;9.43;;;2.45;;
65936;SDS011;52707;52.086;5.418;2022-09-09T09:41:02;6.03;;;2.00;;
65936;SDS011;52707;52.086;5.418;2022-09-09T09:43:32;13.07;;;2.47;;
65936;SDS011;52707;52.086;5.418;2022-09-09T09:45:59;10.68;;;1.83;;
65936;SDS011;52707;52.086;5.418;2022-09-09T09:48:42;11.27;;;2.35;;
65936;SDS011;52707;52.086;5.418;2022-09-09T09:51:09;10.45;;;2.45;;
65936;SDS011;52707;52.086;5.418;2022-09-09T09:53:36;13.90;;;2.35;;
65936;SDS011;52707;52.086;5.418;2022-09-09T09:56:05;13.07;;;2.35;;
65936;SDS011;52707;52.086;5.418;2022-09-09T09:58:33;18.85;;;2.58;;
65936;SDS011;52707;52.086;5.418;2022-09-09T10:01:01;14.60;;;2.83;;
65936;SDS011;52707;52.086;5.418;2022-09-09T10:03:29;23.48;;;2.83;;
65936;SDS011;52707;52.086;5.418;2022-09-09T10:05:56;9.95;;;2.22;;
65936;SDS011;52707;52.086;5.418;2022-09-09T10:08:23;8.50;;;2.10;;
65936;SDS011;52707;52.086;5.418;2022-09-09T10:16:12;12.38;;;3.03;;
65936;SDS011;52707;52.086;5.418;2022-09-09T10:18:45;15.50;;;2.33;;
65936;SDS011;52707;52.086;5.418;2022-09-09T10:29:14;11.93;;;2.05;;
65936;SDS011;52707;52.086;5.418;2022-09-09T10:36:40;10.32;;;2.15;;
65936;SDS011;52707;52.086;5.418;2022-09-09T10:41:44;12.82;;;2.95;;
65936;SDS011;52707;52.086;5.418;2022-09-09T10:44:22;18.30;;;2.88;;
65936;SDS011;52707;52.086;5.418;2022-09-09T10:49:35;10.25;;;2.25;;
65936;SDS011;52707;52.086;5.418;2022-09-09T10:57:25;11.80;;;2.40;;
65936;SDS011;52707;52.086;5.418;2022-09-09T10:59:55;11.27;;;2.47;;
65936;SDS011;52707;52.086;5.418;2022-09-09T11:02:30;7.90;;;2.10;;
65936;SDS011;52707;52.086;5.418;2022-09-09T11:05:16;8.45;;;1.90;;
65936;SDS011;52707;52.086;5.418;2022-09-09T11:07:52;9.70;;;2.10;;
65936;SDS011;52707;52.086;5.418;2022-09-09T11:10:26;9.38;;;2.60;;
65936;SDS011;52707;52.086;5.418;2022-09-09T11:12:58;14.13;;;2.67;;
65936;SDS011;52707;52.086;5.418;2022-09-09T11:15:30;7.32;;;1.88;;
65936;SDS011;52707;52.086;5.418;2022-09-09T11:18:01;10.57;;;2.70;;
65936;SDS011;52707;52.086;5.418;2022-09-09T11:20:30;10.00;;;2.63;;
65936;SDS011;52707;52.086;5.418;2022-09-09T11:22:59;10.02;;;2.40;;
65936;SDS011;52707;52.086;5.418;2022-09-09T11:36:03;17.52;;;2.65;;
65936;SDS011;52707;52.086;5.418;2022-09-09T11:41:08;9.00;;;2.45;;
65936;SDS011;52707;52.086;5.418;2022-09-09T11:46:04;11.25;;;2.38;;
65936;SDS011;52707;52.086;5.418;2022-09-09T11:48:34;10.20;;;2.50;;
65936;SDS011;52707;52.086;5.418;2022-09-09T11:51:02;13.23;;;2.50;;
65936;SDS011;52707;52.086;5.418;2022-09-09T11:53:31;8.68;;;2.03;;
65936;SDS011;52707;52.086;5.418;2022-09-09T11:56:09;10.65;;;2.50;;
65936;SDS011;52707;52.086;5.418;2022-09-09T11:58:42;12.00;;;2.80;;
65936;SDS011;52707;52.086;5.418;2022-09-09T12:01:25;13.30;;;2.47;;
65936;SDS011;52707;52.086;5.418;2022-09-09T12:03:55;13.82;;;2.28;;
65936;SDS011;52707;52.086;5.418;2022-09-09T12:06:26;9.27;;;2.05;;
65936;SDS011;52707;52.086;5.418;2022-09-09T12:08:55;14.25;;;2.90;;
65936;SDS011;52707;52.086;5.418;2022-09-09T12:11:28;13.00;;;2.70;;
65936;SDS011;52707;52.086;5.418;2022-09-09T12:13:55;11.40;;;2.30;;
65936;SDS011;52707;52.086;5.418;2022-09-09T12:16:55;11.10;;;2.20;;
65936;SDS011;52707;52.086;5.418;2022-09-09T12:24:15;10.45;;;2.58;;
65936;SDS011;52707;52.086;5.418;2022-09-09T12:26:45;6.63;;;2.10;;
65936;SDS011;52707;52.086;5.418;2022-09-09T12:29:21;10.23;;;2.38;;
65936;SDS011;52707;52.086;5.418;2022-09-09T12:34:40;7.75;;;2.40;;
65936;SDS011;52707;52.086;5.418;2022-09-09T12:37:24;12.07;;;2.50;;
65936;SDS011;52707;52.086;5.418;2022-09-09T12:39:56;10.70;;;2.88;;
65936;SDS011;52707;52.086;5.418;2022-09-09T12:42:23;10.88;;;2.35;;
65936;SDS011;52707;52.086;5.418;2022-09-09T12:44:56;10.10;;;2.38;;
65936;SDS011;52707;52.086;5.418;2022-09-09T12:47:45;10.65;;;2.58;;
65936;SDS011;52707;52.086;5.418;2022-09-09T12:50:43;5.07;;;2.00;;
65936;SDS011;52707;52.086;5.418;2022-09-09T12:53:04;6.72;;;2.17;;
65936;SDS011;52707;52.086;5.418;2022-09-09T12:55:35;3.20;;;1.90;;
65936;SDS011;52707;52.086;5.418;2022-09-09T12:58:02;10.80;;;2.27;;
65936;SDS011;52707;52.086;5.418;2022-09-09T13:00:33;10.45;;;2.53;;
65936;SDS011;52707;52.086;5.418;2022-09-09T13:03:01;9.15;;;2.20;;
65936;SDS011;52707;52.086;5.418;2022-09-09T13:05:33;6.47;;;2.00;;
65936;SDS011;52707;52.086;5.418;2022-09-09T13:08:01;7.90;;;2.35;;
65936;SDS011;52707;52.086;5.418;2022-09-09T13:10:28;7.63;;;2.28;;
65936;SDS011;52707;52.086;5.418;2022-09-09T13:13:19;6.70;;;2.13;;
65936;SDS011;52707;52.086;5.418;2022-09-09T13:15:51;8.38;;;2.35;;
65936;SDS011;52707;52.086;5.418;2022-09-09T13:18:18;8.88;;;2.20;;
65936;SDS011;52707;52.086;5.418;2022-09-09T13:20:47;10.48;;;2.25;;
65936;SDS011;52707;52.086;5.418;2022-09-09T13:23:14;8.70;;;2.35;;
65936;SDS011;52707;52.086;5.418;2022-09-09T13:25:41;7.20;;;2.00;;
65936;SDS011;52707;52.086;5.418;2022-09-09T13:28:20;12.18;;;3.20;;
65936;SDS011;52707;52.086;5.418;2022-09-09T13:30:57;7.75;;;2.63;;
65936;SDS011;52707;52.086;5.418;2022-09-09T13:33:29;13.95;;;2.72;;
65936;SDS011;52707;52.086;5.418;2022-09-09T13:35:56;8.23;;;2.35;;
65936;SDS011;52707;52.086;5.418;2022-09-09T13:38:23;5.07;;;2.33;;
65936;SDS011;52707;52.086;5.418;2022-09-09T13:43:27;8.30;;;2.50;;
65936;SDS011;52707;52.086;5.418;2022-09-09T13:45:55;9.07;;;2.20;;
65936;SDS011;52707;52.086;5.418;2022-09-09T13:48:22;13.35;;;2.95;;
65936;SDS011;52707;52.086;5.418;2022-09-09T13:50:55;11.23;;;2.80;;
65936;SDS011;52707;52.086;5.418;2022-09-09T13:53:22;7.78;;;2.15;;
65936;SDS011;52707;52.086;5.418;2022-09-09T13:55:48;9.32;;;2.35;;
65936;SDS011;52707;52.086;5.418;2022-09-09T13:58:18;17.40;;;2.60;;
65936;SDS011;52707;52.086;5.418;2022-09-09T14:00:45;11.50;;;2.33;;
65936;SDS011;52707;52.086;5.418;2022-09-09T14:03:12;11.27;;;2.88;;
65936;SDS011;52707;52.086;5.418;2022-09-09T14:05:39;10.35;;;2.47;;
65936;SDS011;52707;52.086;5.418;2022-09-09T14:08:06;8.88;;;2.05;;
65936;SDS011;52707;52.086;5.418;2022-09-09T14:10:33;10.02;;;2.53;;
65936;SDS011;52707;52.086;5.418;2022-09-09T14:13:03;8.68;;;2.28;;
65936;SDS011;52707;52.086;5.418;2022-09-09T14:15:29;6.93;;;1.83;;
65936;SDS011;52707;52.086;5.418;2022-09-09T14:17:55;9.38;;;1.85;;
65936;SDS011;52707;52.086;5.418;2022-09-09T14:20:21;6.00;;;1.98;;
65936;SDS011;52707;52.086;5.418;2022-09-09T14:22:48;7.25;;;2.30;;
65936;SDS011;52707;52.086;5.418;2022-09-09T14:25:14;7.68;;;2.50;;
65936;SDS011;52707;52.086;5.418;2022-09-09T14:27:40;10.68;;;1.95;;
65936;SDS011;52707;52.086;5.418;2022-09-09T14:30:08;14.07;;;2.30;;
65936;SDS011;52707;52.086;5.418;2022-09-09T14:32:34;4.72;;;2.00;;
65936;SDS011;52707;52.086;5.418;2022-09-09T14:35:01;8.40;;;2.25;;
65936;SDS011;52707;52.086;5.418;2022-09-09T14:37:27;10.88;;;2.38;;
65936;SDS011;52707;52.086;5.418;2022-09-09T14:39:53;6.07;;;2.17;;
65936;SDS011;52707;52.086;5.418;2022-09-09T14:42:20;5.10;;;1.98;;
65936;SDS011;52707;52.086;5.418;2022-09-09T14:44:46;8.02;;;2.38;;
65936;SDS011;52707;52.086;5.418;2022-09-09T14:47:13;10.52;;;2.33;;
65936;SDS011;52707;52.086;5.418;2022-09-09T14:49:40;9.70;;;2.33;;
65936;SDS011;52707;52.086;5.418;2022-09-09T14:52:10;11.75;;;2.25;;
65936;SDS011;52707;52.086;5.418;2022-09-09T14:54:37;6.90;;;2.13;;
65936;SDS011;52707;52.086;5.418;2022-09-09T14:57:03;16.73;;;4.10;;
65936;SDS011;52707;52.086;5.418;2022-09-09T14:59:29;23.77;;;3.33;;
65936;SDS011;52707;52.086;5.418;2022-09-09T15:01:56;13.30;;;3.28;;
65936;SDS011;52707;52.086;5.418;2022-09-09T15:04:22;8.10;;;2.70;;
65936;SDS011;52707;52.086;5.418;2022-09-09T15:06:48;7.32;;;2.42;;
65936;SDS011;52707;52.086;5.418;2022-09-09T15:09:15;6.20;;;2.22;;
65936;SDS011;52707;52.086;5.418;2022-09-09T15:11:42;6.10;;;1.92;;
65936;SDS011;52707;52.086;5.418;2022-09-09T15:14:09;5.47;;;2.10;;
65936;SDS011;52707;52.086;5.418;2022-09-09T15:16:36;5.43;;;1.70;;
65936;SDS011;52707;52.086;5.418;2022-09-09T15:19:02;7.25;;;1.92;;
65936;SDS011;52707;52.086;5.418;2022-09-09T15:21:29;5.65;;;1.58;;
65936;SDS011;52707;52.086;5.418;2022-09-09T15:23:56;7.30;;;1.42;;
65936;SDS011;52707;52.086;5.418;2022-09-09T15:26:23;5.03;;;1.33;;
65936;SDS011;52707;52.086;5.418;2022-09-09T15:28:49;2.70;;;1.20;;
65936;SDS011;52707;52.086;5.418;2022-09-09T15:31:17;3.75;;;1.35;;
65936;SDS011;52707;52.086;5.418;2022-09-09T15:33:48;4.70;;;1.23;;
65936;SDS011;52707;52.086;5.418;2022-09-09T15:36:16;2.92;;;1.30;;
65936;SDS011;52707;52.086;5.418;2022-09-09T15:38:43;5.30;;;1.27;;
65936;SDS011;52707;52.086;5.418;2022-09-09T15:41:10;10.07;;;1.65;;
65936;SDS011;52707;52.086;5.418;2022-09-09T15:43:36;4.30;;;1.10;;
65936;SDS011;52707;52.086;5.418;2022-09-09T15:46:19;4.97;;;1.48;;
65936;SDS011;52707;52.086;5.418;2022-09-09T15:48:50;2.85;;;1.33;;
65936;SDS011;52707;52.086;5.418;2022-09-09T15:51:20;2.20;;;1.43;;
65936;SDS011;52707;52.086;5.418;2022-09-09T15:54:06;6.00;;;1.88;;
65936;SDS011;52707;52.086;5.418;2022-09-09T15:56:32;3.63;;;1.55;;
65936;SDS011;52707;52.086;5.418;2022-09-09T15:58:59;5.78;;;1.95;;
65936;SDS011;52707;52.086;5.418;2022-09-09T16:01:26;7.85;;;1.75;;
65936;SDS011;52707;52.086;5.418;2022-09-09T16:03:53;4.88;;;1.50;;
65936;SDS011;52707;52.086;5.418;2022-09-09T16:06:20;2.03;;;1.35;;
65936;SDS011;52707;52.086;5.418;2022-09-09T16:08:48;5.07;;;1.80;;
65936;SDS011;52707;52.086;5.418;2022-09-09T16:11:17;3.95;;;1.80;;
65936;SDS011;52707;52.086;5.418;2022-09-09T16:13:46;5.40;;;1.93;;
65936;SDS011;52707;52.086;5.418;2022-09-09T16:16:17;3.50;;;1.63;;
65936;SDS011;52707;52.086;5.418;2022-09-09T16:18:46;3.30;;;1.40;;
65936;SDS011;52707;52.086;5.418;2022-09-09T16:21:14;7.35;;;1.77;;
65936;SDS011;52707;52.086;5.418;2022-09-09T16:23:40;5.95;;;1.80;;
65936;SDS011;52707;52.086;5.418;2022-09-09T16:26:08;5.85;;;1.98;;
65936;SDS011;52707;52.086;5.418;2022-09-09T16:28:36;5.55;;;2.22;;
65936;SDS011;52707;52.086;5.418;2022-09-09T16:31:09;5.93;;;1.80;;
65936;SDS011;52707;52.086;5.418;2022-09-09T16:33:36;3.63;;;1.70;;
65936;SDS011;52707;52.086;5.418;2022-09-09T16:36:06;3.88;;;1.75;;
65936;SDS011;52707;52.086;5.418;2022-09-09T16:38:33;7.05;;;2.15;;
65936;SDS011;52707;52.086;5.418;2022-09-09T16:40:59;4.50;;;1.58;;
65936;SDS011;52707;52.086;5.418;2022-09-09T16:43:26;5.78;;;2.03;;
65936;SDS011;52707;52.086;5.418;2022-09-09T16:45:52;6.72;;;2.22;;
65936;SDS011;52707;52.086;5.418;2022-09-09T16:48:18;5.45;;;2.05;;